sensor_id;sensor_type;location;lat;lon;timestamp;P1;durP1;ratioP1;P2;durP2;ratioP2
4806;SDS011;2417;52.482;13.432;2023-02-01T00:00:05;23.77;;;4.50;;
4806;SDS011;2417;52.482;13.432;2023-02-01T00:02:34;21.63;;;4.30;;
4806;SDS011;2417;52.482;13.432;2023-02-01T00:05:03;26.20;;;4.00;;
4806;SDS011;2417;52.482;13.432;2023-02-01T00:07:30;22.47;;;4.10;;
4806;SDS011;2417;52.482;13.432;2023-02-01T00:09:58;27.97;;;5.63;;
4806;SDS011;2417;52.482;13.432;2023-02-01T00:12:26;29.03;;;6.03;;
4806;SDS011;2417;52.482;13.432;2023-02-01T00:14:53;29.83;;;5.57;;
4806;SDS011;2417;52.482;13.432;2023-02-01T00:17:21;27.67;;;5.80;;
4806;SDS011;2417;52.482;13.432;2023-02-01T00:19:50;32.90;;;6.07;;
4806;SDS011;2417;52.482;13.432;2023-02-01T00:22:18;24.50;;;5.00;;
4806;SDS011;2417;52.482;13.432;2023-02-01T00:24:46;28.20;;;4.70;;
4806;SDS011;2417;52.482;13.432;2023-02-01T00:27:14;21.20;;;4.30;;
4806;SDS011;2417;52.482;13.432;2023-02-01T00:29:45;22.20;;;4.97;;
4806;SDS011;2417;52.482;13.432;2023-02-01T00:32:13;23.37;;;5.53;;
4806;SDS011;2417;52.482;13.432;2023-02-01T00:34:41;30.43;;;5.10;;
4806;SDS011;2417;52.482;13.432;2023-02-01T00:37:12;23.20;;;6.23;;
4806;SDS011;2417;52.482;13.432;2023-02-01T00:39:40;21.50;;;4.57;;
4806;SDS011;2417;52.482;13.432;2023-02-01T00:42:08;19.47;;;5.00;;
4806;SDS011;2417;52.482;13.432;2023-02-01T00:44:36;25.00;;;5.20;;
4806;SDS011;2417;52.482;13.432;2023-02-01T00:47:04;35.87;;;4.33;;
4806;SDS011;2417;52.482;13.432;2023-02-01T00:49:33;26.03;;;6.07;;
4806;SDS011;2417;52.482;13.432;2023-02-01T00:52:01;16.17;;;4.07;;
4806;SDS011;2417;52.482;13.432;2023-02-01T00:54:34;20.60;;;3.63;;
4806;SDS011;2417;52.482;13.432;2023-02-01T00:57:07;19.50;;;2.97;;
4806;SDS011;2417;52.482;13.432;2023-02-01T00:59:35;19.77;;;4.00;;
4806;SDS011;2417;52.482;13.432;2023-02-01T01:02:03;21.43;;;3.90;;
4806;SDS011;2417;52.482;13.432;2023-02-01T01:04:36;17.90;;;3.73;;
4806;SDS011;2417;52.482;13.432;2023-02-01T01:07:04;16.13;;;3.30;;
4806;SDS011;2417;52.482;13.432;2023-02-01T01:09:37;15.70;;;3.10;;
4806;SDS011;2417;52.482;13.432;2023-02-01T01:12:08;17.50;;;3.60;;
4806;SDS011;2417;52.482;13.432;2023-02-01T01:14:36;21.30;;;3.90;;
4806;SDS011;2417;52.482;13.432;2023-02-01T01:17:04;16.40;;;2.70;;
4806;SDS011;2417;52.482;13.432;2023-02-01T01:19:32;14.60;;;2.77;;
4806;SDS011;2417;52.482;13.432;2023-02-01T01:22:00;18.87;;;3.43;;
4806;SDS011;2417;52.482;13.432;2023-02-01T01:24:31;17.90;;;3.47;;
4806;SDS011;2417;52.482;13.432;2023-02-01T01:27:02;21.87;;;4.67;;
4806;SDS011;2417;52.482;13.432;2023-02-01T01:29:33;20.13;;;4.43;;
4806;SDS011;2417;52.482;13.432;2023-02-01T01:32:01;18.90;;;4.83;;
4806;SDS011;2417;52.482;13.432;2023-02-01T01:34:32;23.07;;;4.10;;
4806;SDS011;2417;52.482;13.432;2023-02-01T01:37:00;21.37;;;3.37;;
4806;SDS011;2417;52.482;13.432;2023-02-01T01:39:29;18.40;;;3.40;;
4806;SDS011;2417;52.482;13.432;2023-02-01T01:41:57;18.70;;;3.37;;
4806;SDS011;2417;52.482;13.432;2023-02-01T01:47:15;18.33;;;5.63;;
4806;SDS011;2417;52.482;13.432;2023-02-01T01:49:43;24.33;;;3.60;;
4806;SDS011;2417;52.482;13.432;2023-02-01T01:52:11;18.10;;;4.63;;
4806;SDS011;2417;52.482;13.432;2023-02-01T01:54:40;17.43;;;4.40;;
4806;SDS011;2417;52.482;13.432;2023-02-01T01:57:12;22.70;;;3.57;;
4806;SDS011;2417;52.482;13.432;2023-02-01T01:59:41;19.90;;;3.10;;
4806;SDS011;2417;52.482;13.432;2023-02-01T02:02:10;23.20;;;3.20;;
4806;SDS011;2417;52.482;13.432;2023-02-01T02:04:40;15.13;;;2.87;;
4806;SDS011;2417;52.482;13.432;2023-02-01T02:07:09;16.70;;;3.80;;
4806;SDS011;2417;52.482;13.432;2023-02-01T02:09:39;21.53;;;4.07;;
4806;SDS011;2417;52.482;13.432;2023-02-01T02:12:25;23.20;;;3.77;;
4806;SDS011;2417;52.482;13.432;2023-02-01T02:14:54;16.53;;;3.17;;
4806;SDS011;2417;52.482;13.432;2023-02-01T02:17:25;17.10;;;3.10;;
4806;SDS011;2417;52.482;13.432;2023-02-01T02:22:52;20.13;;;3.70;;
4806;SDS011;2417;52.482;13.432;2023-02-01T02:25:37;19.37;;;3.20;;
4806;SDS011;2417;52.482;13.432;2023-02-01T02:28:20;16.47;;;2.70;;
4806;SDS011;2417;52.482;13.432;2023-02-01T02:31:04;22.63;;;3.90;;
4806;SDS011;2417;52.482;13.432;2023-02-01T02:33:47;19.37;;;3.40;;
4806;SDS011;2417;52.482;13.432;2023-02-01T02:36:19;18.67;;;3.47;;
4806;SDS011;2417;52.482;13.432;2023-02-01T02:38:52;16.60;;;3.13;;
4806;SDS011;2417;52.482;13.432;2023-02-01T02:41:26;16.00;;;3.67;;
4806;SDS011;2417;52.482;13.432;2023-02-01T02:44:13;13.33;;;2.63;;
4806;SDS011;2417;52.482;13.432;2023-02-01T02:47:03;18.10;;;3.33;;
4806;SDS011;2417;52.482;13.432;2023-02-01T02:49:54;14.80;;;3.00;;
4806;SDS011;2417;52.482;13.432;2023-02-01T02:52:38;29.97;;;3.60;;
4806;SDS011;2417;52.482;13.432;2023-02-01T02:55:28;19.43;;;3.50;;
4806;SDS011;2417;52.482;13.432;2023-02-01T02:57:57;16.60;;;3.37;;
4806;SDS011;2417;52.482;13.432;2023-02-01T03:00:43;19.50;;;3.20;;
4806;SDS011;2417;52.482;13.432;2023-02-01T03:03:29;16.70;;;3.60;;
4806;SDS011;2417;52.482;13.432;2023-02-01T03:06:16;23.60;;;3.43;;
4806;SDS011;2417;52.482;13.432;2023-02-01T03:08:47;13.17;;;2.87;;
4806;SDS011;2417;52.482;13.432;2023-02-01T03:11:15;21.27;;;5.33;;
4806;SDS011;2417;52.482;13.432;2023-02-01T03:13:44;16.70;;;3.00;;
4806;SDS011;2417;52.482;13.432;2023-02-01T03:16:15;19.63;;;3.63;;
4806;SDS011;2417;52.482;13.432;2023-02-01T03:18:46;19.90;;;3.50;;
4806;SDS011;2417;52.482;13.432;2023-02-01T03:21:17;20.80;;;3.40;;
4806;SDS011;2417;52.482;13.432;2023-02-01T03:23:46;23.03;;;3.77;;
4806;SDS011;2417;52.482;13.432;2023-02-01T03:26:16;15.27;;;3.33;;
4806;SDS011;2417;52.482;13.432;2023-02-01T03:28:46;13.73;;;3.40;;
4806;SDS011;2417;52.482;13.432;2023-02-01T03:31:15;26.80;;;5.27;;
4806;SDS011;2417;52.482;13.432;2023-02-01T03:33:43;23.27;;;3.77;;
4806;SDS011;2417;52.482;13.432;2023-02-01T03:36:15;17.37;;;3.23;;
4806;SDS011;2417;52.482;13.432;2023-02-01T03:38:46;20.50;;;3.93;;
4806;SDS011;2417;52.482;13.432;2023-02-01T03:41:23;19.37;;;3.80;;
4806;SDS011;2417;52.482;13.432;2023-02-01T03:43:54;16.33;;;3.67;;
4806;SDS011;2417;52.482;13.432;2023-02-01T03:46:25;20.67;;;3.60;;
4806;SDS011;2417;52.482;13.432;2023-02-01T03:48:55;24.00;;;4.10;;
4806;SDS011;2417;52.482;13.432;2023-02-01T03:51:23;24.50;;;4.40;;
4806;SDS011;2417;52.482;13.432;2023-02-01T03:53:53;24.83;;;4.20;;
4806;SDS011;2417;52.482;13.432;2023-02-01T03:56:23;18.73;;;3.60;;
4806;SDS011;2417;52.482;13.432;2023-02-01T03:58:52;19.73;;;3.33;;
4806;SDS011;2417;52.482;13.432;2023-02-01T04:01:31;17.13;;;3.93;;
4806;SDS011;2417;52.482;13.432;2023-02-01T04:04:00;23.10;;;3.70;;
4806;SDS011;2417;52.482;13.432;2023-02-01T04:06:28;23.13;;;3.97;;
4806;SDS011;2417;52.482;13.432;2023-02-01T04:09:01;19.53;;;3.50;;
4806;SDS011;2417;52.482;13.432;2023-02-01T04:11:30;21.57;;;3.83;;
4806;SDS011;2417;52.482;13.432;2023-02-01T04:13:57;17.90;;;3.63;;
4806;SDS011;2417;52.482;13.432;2023-02-01T04:16:30;20.43;;;3.50;;
4806;SDS011;2417;52.482;13.432;2023-02-01T04:18:58;22.73;;;3.53;;
4806;SDS011;2417;52.482;13.432;2023-02-01T04:21:26;26.27;;;3.90;;
4806;SDS011;2417;52.482;13.432;2023-02-01T04:23:54;19.43;;;4.33;;
4806;SDS011;2417;52.482;13.432;2023-02-01T04:26:23;25.40;;;3.80;;
4806;SDS011;2417;52.482;13.432;2023-02-01T04:28:51;19.80;;;3.93;;
4806;SDS011;2417;52.482;13.432;2023-02-01T04:31:20;21.10;;;4.53;;
4806;SDS011;2417;52.482;13.432;2023-02-01T04:33:52;13.57;;;2.90;;
4806;SDS011;2417;52.482;13.432;2023-02-01T04:36:20;17.53;;;3.33;;
4806;SDS011;2417;52.482;13.432;2023-02-01T04:38:49;21.47;;;3.27;;
4806;SDS011;2417;52.482;13.432;2023-02-01T04:41:16;17.80;;;4.63;;
4806;SDS011;2417;52.482;13.432;2023-02-01T04:43:46;12.80;;;3.33;;
4806;SDS011;2417;52.482;13.432;2023-02-01T04:46:14;22.60;;;3.80;;
4806;SDS011;2417;52.482;13.432;2023-02-01T04:48:43;20.67;;;3.97;;
4806;SDS011;2417;52.482;13.432;2023-02-01T04:51:10;20.57;;;3.70;;
4806;SDS011;2417;52.482;13.432;2023-02-01T04:53:38;20.20;;;3.40;;
4806;SDS011;2417;52.482;13.432;2023-02-01T04:56:06;21.40;;;3.93;;
4806;SDS011;2417;52.482;13.432;2023-02-01T04:58:34;23.03;;;3.87;;
4806;SDS011;2417;52.482;13.432;2023-02-01T05:01:03;17.37;;;3.53;;
4806;SDS011;2417;52.482;13.432;2023-02-01T05:03:32;21.67;;;4.30;;
4806;SDS011;2417;52.482;13.432;2023-02-01T05:05:59;17.70;;;2.93;;
4806;SDS011;2417;52.482;13.432;2023-02-01T05:08:27;18.10;;;4.07;;
4806;SDS011;2417;52.482;13.432;2023-02-01T05:10:55;22.63;;;4.30;;
4806;SDS011;2417;52.482;13.432;2023-02-01T05:13:24;12.60;;;3.33;;
4806;SDS011;2417;52.482;13.432;2023-02-01T05:16:10;22.67;;;4.03;;
4806;SDS011;2417;52.482;13.432;2023-02-01T05:18:39;25.23;;;4.10;;
4806;SDS011;2417;52.482;13.432;2023-02-01T05:21:07;21.70;;;4.63;;
4806;SDS011;2417;52.482;13.432;2023-02-01T05:23:35;18.17;;;4.10;;
4806;SDS011;2417;52.482;13.432;2023-02-01T05:26:23;24.53;;;3.90;;
4806;SDS011;2417;52.482;13.432;2023-02-01T05:28:51;20.73;;;3.40;;
4806;SDS011;2417;52.482;13.432;2023-02-01T05:31:21;19.80;;;3.20;;
4806;SDS011;2417;52.482;13.432;2023-02-01T05:33:49;19.10;;;3.30;;
4806;SDS011;2417;52.482;13.432;2023-02-01T05:36:17;22.03;;;4.00;;
4806;SDS011;2417;52.482;13.432;2023-02-01T05:38:45;18.73;;;3.10;;
4806;SDS011;2417;52.482;13.432;2023-02-01T05:41:13;27.03;;;4.23;;
4806;SDS011;2417;52.482;13.432;2023-02-01T05:43:41;17.70;;;3.77;;
4806;SDS011;2417;52.482;13.432;2023-02-01T05:46:09;21.13;;;4.07;;
4806;SDS011;2417;52.482;13.432;2023-02-01T05:48:40;20.33;;;4.67;;
4806;SDS011;2417;52.482;13.432;2023-02-01T05:51:09;21.60;;;4.60;;
4806;SDS011;2417;52.482;13.432;2023-02-01T05:53:36;14.87;;;3.70;;
4806;SDS011;2417;52.482;13.432;2023-02-01T05:56:06;18.43;;;4.00;;
4806;SDS011;2417;52.482;13.432;2023-02-01T05:58:34;14.30;;;3.17;;
4806;SDS011;2417;52.482;13.432;2023-02-01T06:01:02;20.07;;;3.80;;
4806;SDS011;2417;52.482;13.432;2023-02-01T06:03:30;17.67;;;2.93;;
4806;SDS011;2417;52.482;13.432;2023-02-01T06:05:59;17.77;;;3.80;;
4806;SDS011;2417;52.482;13.432;2023-02-01T06:08:27;18.70;;;4.23;;
4806;SDS011;2417;52.482;13.432;2023-02-01T06:10:59;25.27;;;4.20;;
4806;SDS011;2417;52.482;13.432;2023-02-01T06:13:27;20.80;;;3.83;;
4806;SDS011;2417;52.482;13.432;2023-02-01T06:15:58;17.20;;;3.50;;
4806;SDS011;2417;52.482;13.432;2023-02-01T06:18:26;25.17;;;4.80;;
4806;SDS011;2417;52.482;13.432;2023-02-01T06:20:53;23.90;;;4.00;;
4806;SDS011;2417;52.482;13.432;2023-02-01T06:23:23;22.47;;;4.10;;
4806;SDS011;2417;52.482;13.432;2023-02-01T06:25:51;19.20;;;4.67;;
4806;SDS011;2417;52.482;13.432;2023-02-01T06:28:18;26.63;;;4.60;;
4806;SDS011;2417;52.482;13.432;2023-02-01T06:30:46;31.73;;;4.40;;
4806;SDS011;2417;52.482;13.432;2023-02-01T06:33:14;17.43;;;3.70;;
4806;SDS011;2417;52.482;13.432;2023-02-01T06:35:42;18.90;;;3.90;;
4806;SDS011;2417;52.482;13.432;2023-02-01T06:38:11;18.70;;;4.23;;
4806;SDS011;2417;52.482;13.432;2023-02-01T06:40:40;19.00;;;3.73;;
4806;SDS011;2417;52.482;13.432;2023-02-01T06:43:08;19.23;;;4.10;;
4806;SDS011;2417;52.482;13.432;2023-02-01T06:45:36;22.80;;;4.57;;
4806;SDS011;2417;52.482;13.432;2023-02-01T06:48:05;22.20;;;4.33;;
4806;SDS011;2417;52.482;13.432;2023-02-01T06:50:33;26.00;;;6.00;;
4806;SDS011;2417;52.482;13.432;2023-02-01T06:53:01;24.73;;;5.43;;
4806;SDS011;2417;52.482;13.432;2023-02-01T06:55:29;24.70;;;4.80;;
4806;SDS011;2417;52.482;13.432;2023-02-01T06:57:58;29.07;;;5.57;;
4806;SDS011;2417;52.482;13.432;2023-02-01T07:00:27;29.53;;;5.70;;
4806;SDS011;2417;52.482;13.432;2023-02-01T07:02:57;21.93;;;4.67;;
4806;SDS011;2417;52.482;13.432;2023-02-01T07:05:24;18.93;;;5.10;;
4806;SDS011;2417;52.482;13.432;2023-02-01T07:07:52;29.03;;;4.73;;
4806;SDS011;2417;52.482;13.432;2023-02-01T07:10:20;29.87;;;5.33;;
4806;SDS011;2417;52.482;13.432;2023-02-01T07:12:48;25.40;;;5.20;;
4806;SDS011;2417;52.482;13.432;2023-02-01T07:15:18;28.53;;;4.90;;
4806;SDS011;2417;52.482;13.432;2023-02-01T07:17:45;24.60;;;4.90;;
4806;SDS011;2417;52.482;13.432;2023-02-01T07:20:14;31.27;;;4.67;;
4806;SDS011;2417;52.482;13.432;2023-02-01T07:22:42;23.80;;;4.33;;
4806;SDS011;2417;52.482;13.432;2023-02-01T07:25:09;18.80;;;4.13;;
4806;SDS011;2417;52.482;13.432;2023-02-01T07:27:37;18.60;;;4.23;;
4806;SDS011;2417;52.482;13.432;2023-02-01T07:30:05;27.50;;;4.97;;
4806;SDS011;2417;52.482;13.432;2023-02-01T07:32:35;26.30;;;5.00;;
4806;SDS011;2417;52.482;13.432;2023-02-01T07:35:03;17.37;;;4.33;;
4806;SDS011;2417;52.482;13.432;2023-02-01T07:37:52;19.03;;;4.60;;
4806;SDS011;2417;52.482;13.432;2023-02-01T07:40:19;22.67;;;4.73;;
4806;SDS011;2417;52.482;13.432;2023-02-01T07:42:51;21.33;;;5.40;;
4806;SDS011;2417;52.482;13.432;2023-02-01T07:45:19;21.93;;;4.63;;
4806;SDS011;2417;52.482;13.432;2023-02-01T07:47:48;19.27;;;4.63;;
4806;SDS011;2417;52.482;13.432;2023-02-01T07:50:20;24.07;;;5.00;;
4806;SDS011;2417;52.482;13.432;2023-02-01T07:52:48;19.90;;;4.40;;
4806;SDS011;2417;52.482;13.432;2023-02-01T07:55:16;20.90;;;4.33;;
4806;SDS011;2417;52.482;13.432;2023-02-01T07:57:45;20.60;;;4.60;;
4806;SDS011;2417;52.482;13.432;2023-02-01T08:00:13;22.70;;;5.00;;
4806;SDS011;2417;52.482;13.432;2023-02-01T08:03:00;25.93;;;5.50;;
4806;SDS011;2417;52.482;13.432;2023-02-01T08:05:28;27.83;;;5.57;;
4806;SDS011;2417;52.482;13.432;2023-02-01T08:07:56;35.13;;;4.67;;
4806;SDS011;2417;52.482;13.432;2023-02-01T08:10:24;21.73;;;5.57;;
4806;SDS011;2417;52.482;13.432;2023-02-01T08:12:57;29.43;;;5.80;;
4806;SDS011;2417;52.482;13.432;2023-02-01T08:15:25;16.90;;;5.30;;
4806;SDS011;2417;52.482;13.432;2023-02-01T08:17:53;14.03;;;5.07;;
4806;SDS011;2417;52.482;13.432;2023-02-01T08:20:23;21.67;;;5.30;;
4806;SDS011;2417;52.482;13.432;2023-02-01T08:22:53;17.63;;;4.80;;
4806;SDS011;2417;52.482;13.432;2023-02-01T08:25:21;20.33;;;5.43;;
4806;SDS011;2417;52.482;13.432;2023-02-01T08:27:49;21.43;;;5.50;;
4806;SDS011;2417;52.482;13.432;2023-02-01T08:30:18;18.53;;;4.83;;
4806;SDS011;2417;52.482;13.432;2023-02-01T08:32:47;14.90;;;4.63;;
4806;SDS011;2417;52.482;13.432;2023-02-01T08:35:14;15.80;;;5.00;;
4806;SDS011;2417;52.482;13.432;2023-02-01T08:37:44;19.10;;;5.50;;
4806;SDS011;2417;52.482;13.432;2023-02-01T08:40:12;21.03;;;5.63;;
4806;SDS011;2417;52.482;13.432;2023-02-01T08:42:41;16.37;;;5.33;;
4806;SDS011;2417;52.482;13.432;2023-02-01T08:45:22;20.30;;;5.57;;
4806;SDS011;2417;52.482;13.432;2023-02-01T08:47:51;17.97;;;6.13;;
4806;SDS011;2417;52.482;13.432;2023-02-01T08:50:19;14.47;;;5.80;;
4806;SDS011;2417;52.482;13.432;2023-02-01T08:52:48;11.83;;;5.03;;
4806;SDS011;2417;52.482;13.432;2023-02-01T08:55:16;20.57;;;5.30;;
4806;SDS011;2417;52.482;13.432;2023-02-01T08:57:44;13.03;;;5.23;;
4806;SDS011;2417;52.482;13.432;2023-02-01T09:00:13;14.80;;;5.40;;
4806;SDS011;2417;52.482;13.432;2023-02-01T09:02:41;12.57;;;5.27;;
4806;SDS011;2417;52.482;13.432;2023-02-01T09:05:09;12.67;;;4.27;;
4806;SDS011;2417;52.482;13.432;2023-02-01T09:07:38;8.97;;;4.63;;
4806;SDS011;2417;52.482;13.432;2023-02-01T09:10:08;9.57;;;4.23;;
4806;SDS011;2417;52.482;13.432;2023-02-01T09:12:36;9.97;;;4.17;;
4806;SDS011;2417;52.482;13.432;2023-02-01T09:15:04;8.43;;;3.60;;
4806;SDS011;2417;52.482;13.432;2023-02-01T09:17:33;11.33;;;4.00;;
4806;SDS011;2417;52.482;13.432;2023-02-01T09:20:01;12.47;;;4.37;;
4806;SDS011;2417;52.482;13.432;2023-02-01T09:22:29;6.60;;;3.33;;
4806;SDS011;2417;52.482;13.432;2023-02-01T09:24:57;4.57;;;2.77;;
4806;SDS011;2417;52.482;13.432;2023-02-01T09:27:27;8.20;;;2.93;;
4806;SDS011;2417;52.482;13.432;2023-02-01T09:29:55;7.00;;;3.27;;
4806;SDS011;2417;52.482;13.432;2023-02-01T09:32:23;10.33;;;3.17;;
4806;SDS011;2417;52.482;13.432;2023-02-01T09:34:51;9.17;;;3.43;;
4806;SDS011;2417;52.482;13.432;2023-02-01T09:37:19;8.57;;;3.37;;
4806;SDS011;2417;52.482;13.432;2023-02-01T09:39:47;6.50;;;3.03;;
4806;SDS011;2417;52.482;13.432;2023-02-01T09:42:25;7.90;;;2.80;;
4806;SDS011;2417;52.482;13.432;2023-02-01T09:45:04;5.70;;;2.80;;
4806;SDS011;2417;52.482;13.432;2023-02-01T09:47:34;5.00;;;2.30;;
4806;SDS011;2417;52.482;13.432;2023-02-01T09:50:04;8.50;;;3.27;;
4806;SDS011;2417;52.482;13.432;2023-02-01T09:52:34;8.70;;;2.63;;
4806;SDS011;2417;52.482;13.432;2023-02-01T09:55:26;9.03;;;2.90;;
4806;SDS011;2417;52.482;13.432;2023-02-01T09:57:58;9.90;;;4.07;;
4806;SDS011;2417;52.482;13.432;2023-02-01T10:00:28;7.90;;;3.87;;
4806;SDS011;2417;52.482;13.432;2023-02-01T10:02:57;10.10;;;5.53;;
4806;SDS011;2417;52.482;13.432;2023-02-01T10:05:30;6.70;;;3.10;;
4806;SDS011;2417;52.482;13.432;2023-02-01T10:08:04;6.57;;;2.73;;
4806;SDS011;2417;52.482;13.432;2023-02-01T10:10:35;4.27;;;2.53;;
4806;SDS011;2417;52.482;13.432;2023-02-01T10:13:12;7.30;;;3.00;;
4806;SDS011;2417;52.482;13.432;2023-02-01T10:15:48;16.53;;;3.23;;
4806;SDS011;2417;52.482;13.432;2023-02-01T10:18:42;10.57;;;3.50;;
4806;SDS011;2417;52.482;13.432;2023-02-01T10:21:15;7.63;;;3.83;;
4806;SDS011;2417;52.482;13.432;2023-02-01T10:26:45;9.90;;;2.90;;
4806;SDS011;2417;52.482;13.432;2023-02-01T10:29:14;9.80;;;3.40;;
4806;SDS011;2417;52.482;13.432;2023-02-01T10:31:44;13.43;;;3.70;;
4806;SDS011;2417;52.482;13.432;2023-02-01T10:34:15;14.63;;;3.77;;
4806;SDS011;2417;52.482;13.432;2023-02-01T10:36:49;7.47;;;2.57;;
4806;SDS011;2417;52.482;13.432;2023-02-01T10:39:18;8.50;;;3.10;;
4806;SDS011;2417;52.482;13.432;2023-02-01T10:41:46;9.70;;;2.80;;
4806;SDS011;2417;52.482;13.432;2023-02-01T10:44:15;7.30;;;2.30;;
4806;SDS011;2417;52.482;13.432;2023-02-01T10:46:45;11.90;;;2.43;;
4806;SDS011;2417;52.482;13.432;2023-02-01T10:49:15;13.23;;;3.10;;
4806;SDS011;2417;52.482;13.432;2023-02-01T10:51:45;21.60;;;2.43;;
4806;SDS011;2417;52.482;13.432;2023-02-01T10:54:16;5.80;;;2.07;;
4806;SDS011;2417;52.482;13.432;2023-02-01T10:56:50;9.93;;;1.63;;
4806;SDS011;2417;52.482;13.432;2023-02-01T10:59:20;7.80;;;1.90;;
4806;SDS011;2417;52.482;13.432;2023-02-01T11:01:51;11.03;;;2.60;;
4806;SDS011;2417;52.482;13.432;2023-02-01T11:04:25;12.90;;;2.90;;
4806;SDS011;2417;52.482;13.432;2023-02-01T11:07:03;7.63;;;2.70;;
4806;SDS011;2417;52.482;13.432;2023-02-01T11:09:34;7.80;;;2.87;;
4806;SDS011;2417;52.482;13.432;2023-02-01T11:12:03;16.47;;;3.10;;
4806;SDS011;2417;52.482;13.432;2023-02-01T11:14:36;6.47;;;2.93;;
4806;SDS011;2417;52.482;13.432;2023-02-01T11:17:24;6.83;;;3.10;;
4806;SDS011;2417;52.482;13.432;2023-02-01T11:19:56;8.67;;;3.87;;
4806;SDS011;2417;52.482;13.432;2023-02-01T11:22:25;11.00;;;4.23;;
4806;SDS011;2417;52.482;13.432;2023-02-01T11:24:53;14.10;;;3.57;;
4806;SDS011;2417;52.482;13.432;2023-02-01T11:27:21;11.67;;;3.70;;
4806;SDS011;2417;52.482;13.432;2023-02-01T11:29:55;11.20;;;3.10;;
4806;SDS011;2417;52.482;13.432;2023-02-01T11:32:25;12.80;;;3.80;;
4806;SDS011;2417;52.482;13.432;2023-02-01T11:34:55;20.83;;;4.67;;
4806;SDS011;2417;52.482;13.432;2023-02-01T11:37:26;16.53;;;4.63;;
4806;SDS011;2417;52.482;13.432;2023-02-01T11:39:56;33.67;;;6.03;;
4806;SDS011;2417;52.482;13.432;2023-02-01T11:42:25;23.57;;;4.80;;
4806;SDS011;2417;52.482;13.432;2023-02-01T11:45:07;14.60;;;3.60;;
4806;SDS011;2417;52.482;13.432;2023-02-01T11:47:40;20.90;;;3.43;;
4806;SDS011;2417;52.482;13.432;2023-02-01T11:50:12;18.77;;;3.50;;
4806;SDS011;2417;52.482;13.432;2023-02-01T11:52:43;15.40;;;3.60;;
4806;SDS011;2417;52.482;13.432;2023-02-01T11:55:20;12.30;;;3.10;;
4806;SDS011;2417;52.482;13.432;2023-02-01T11:57:57;18.13;;;4.17;;
4806;SDS011;2417;52.482;13.432;2023-02-01T12:00:32;17.17;;;3.10;;
4806;SDS011;2417;52.482;13.432;2023-02-01T12:03:13;13.63;;;3.13;;
4806;SDS011;2417;52.482;13.432;2023-02-01T12:05:49;9.53;;;2.63;;
4806;SDS011;2417;52.482;13.432;2023-02-01T12:08:25;12.97;;;2.87;;
4806;SDS011;2417;52.482;13.432;2023-02-01T12:11:03;20.07;;;2.67;;
4806;SDS011;2417;52.482;13.432;2023-02-01T12:13:38;12.40;;;2.47;;
4806;SDS011;2417;52.482;13.432;2023-02-01T12:16:13;9.93;;;2.67;;
4806;SDS011;2417;52.482;13.432;2023-02-01T12:18:51;11.83;;;2.60;;
4806;SDS011;2417;52.482;13.432;2023-02-01T12:21:35;12.90;;;2.13;;
4806;SDS011;2417;52.482;13.432;2023-02-01T12:24:11;17.20;;;2.50;;
4806;SDS011;2417;52.482;13.432;2023-02-01T12:26:56;10.17;;;2.20;;
4806;SDS011;2417;52.482;13.432;2023-02-01T12:29:34;13.30;;;2.90;;
4806;SDS011;2417;52.482;13.432;2023-02-01T12:32:07;12.30;;;2.77;;
4806;SDS011;2417;52.482;13.432;2023-02-01T12:34:52;15.30;;;3.07;;
4806;SDS011;2417;52.482;13.432;2023-02-01T12:37:24;7.33;;;1.80;;
4806;SDS011;2417;52.482;13.432;2023-02-01T12:39:57;15.47;;;2.40;;
4806;SDS011;2417;52.482;13.432;2023-02-01T12:42:29;13.97;;;3.10;;
4806;SDS011;2417;52.482;13.432;2023-02-01T12:44:59;12.03;;;2.20;;
4806;SDS011;2417;52.482;13.432;2023-02-01T12:47:31;11.40;;;3.13;;
4806;SDS011;2417;52.482;13.432;2023-02-01T12:50:02;19.43;;;3.13;;
4806;SDS011;2417;52.482;13.432;2023-02-01T12:52:33;11.20;;;2.47;;
4806;SDS011;2417;52.482;13.432;2023-02-01T12:55:05;10.40;;;2.47;;
4806;SDS011;2417;52.482;13.432;2023-02-01T12:57:35;9.63;;;2.27;;
4806;SDS011;2417;52.482;13.432;2023-02-01T13:00:06;9.03;;;2.13;;
4806;SDS011;2417;52.482;13.432;2023-02-01T13:02:39;13.70;;;2.90;;
4806;SDS011;2417;52.482;13.432;2023-02-01T13:05:16;10.53;;;2.20;;
4806;SDS011;2417;52.482;13.432;2023-02-01T13:07:45;8.67;;;2.00;;
4806;SDS011;2417;52.482;13.432;2023-02-01T13:10:15;11.93;;;1.83;;
4806;SDS011;2417;52.482;13.432;2023-02-01T13:12:48;5.33;;;2.10;;
4806;SDS011;2417;52.482;13.432;2023-02-01T13:15:17;12.27;;;2.83;;
4806;SDS011;2417;52.482;13.432;2023-02-01T13:17:47;5.10;;;1.97;;
4806;SDS011;2417;52.482;13.432;2023-02-01T13:20:19;9.07;;;2.47;;
4806;SDS011;2417;52.482;13.432;2023-02-01T13:22:50;9.53;;;1.83;;
4806;SDS011;2417;52.482;13.432;2023-02-01T13:25:21;7.30;;;1.87;;
4806;SDS011;2417;52.482;13.432;2023-02-01T13:27:53;10.17;;;2.03;;
4806;SDS011;2417;52.482;13.432;2023-02-01T13:30:22;9.03;;;1.70;;
4806;SDS011;2417;52.482;13.432;2023-02-01T13:32:58;11.43;;;2.37;;
4806;SDS011;2417;52.482;13.432;2023-02-01T13:41:24;7.63;;;2.37;;
4806;SDS011;2417;52.482;13.432;2023-02-01T13:43:54;10.27;;;2.70;;
4806;SDS011;2417;52.482;13.432;2023-02-01T13:46:23;8.97;;;2.00;;
4806;SDS011;2417;52.482;13.432;2023-02-01T13:48:51;11.90;;;3.17;;
4806;SDS011;2417;52.482;13.432;2023-02-01T13:51:28;14.80;;;3.80;;
4806;SDS011;2417;52.482;13.432;2023-02-01T13:54:00;12.93;;;3.50;;
4806;SDS011;2417;52.482;13.432;2023-02-01T13:56:32;9.80;;;3.00;;
4806;SDS011;2417;52.482;13.432;2023-02-01T14:01:50;10.23;;;2.77;;
4806;SDS011;2417;52.482;13.432;2023-02-01T14:07:15;6.00;;;1.93;;
4806;SDS011;2417;52.482;13.432;2023-02-01T14:09:44;10.37;;;2.87;;
4806;SDS011;2417;52.482;13.432;2023-02-01T14:15:14;13.27;;;3.00;;
4806;SDS011;2417;52.482;13.432;2023-02-01T14:17:43;19.93;;;2.87;;
4806;SDS011;2417;52.482;13.432;2023-02-01T14:23:16;18.43;;;3.20;;
4806;SDS011;2417;52.482;13.432;2023-02-01T14:25:44;16.13;;;3.53;;
4806;SDS011;2417;52.482;13.432;2023-02-01T14:28:19;13.57;;;3.17;;
4806;SDS011;2417;52.482;13.432;2023-02-01T14:30:51;22.77;;;4.10;;
4806;SDS011;2417;52.482;13.432;2023-02-01T14:33:21;16.87;;;4.17;;
4806;SDS011;2417;52.482;13.432;2023-02-01T14:35:57;11.63;;;3.93;;
4806;SDS011;2417;52.482;13.432;2023-02-01T14:38:26;13.70;;;4.00;;
4806;SDS011;2417;52.482;13.432;2023-02-01T14:41:10;13.23;;;4.33;;
4806;SDS011;2417;52.482;13.432;2023-02-01T14:43:51;16.77;;;4.63;;
4806;SDS011;2417;52.482;13.432;2023-02-01T14:49:29;15.77;;;3.90;;
4806;SDS011;2417;52.482;13.432;2023-02-01T14:51:58;21.13;;;4.33;;
4806;SDS011;2417;52.482;13.432;2023-02-01T14:54:26;13.40;;;3.90;;
4806;SDS011;2417;52.482;13.432;2023-02-01T14:56:55;15.70;;;4.07;;
4806;SDS011;2417;52.482;13.432;2023-02-01T14:59:22;18.17;;;3.67;;
4806;SDS011;2417;52.482;13.432;2023-02-01T15:01:52;19.90;;;3.57;;
4806;SDS011;2417;52.482;13.432;2023-02-01T15:04:24;10.50;;;3.07;;
4806;SDS011;2417;52.482;13.432;2023-02-01T15:06:54;15.67;;;3.47;;
4806;SDS011;2417;52.482;13.432;2023-02-01T15:09:25;7.97;;;2.37;;
4806;SDS011;2417;52.482;13.432;2023-02-01T15:11:58;8.93;;;2.00;;
4806;SDS011;2417;52.482;13.432;2023-02-01T15:14:27;5.13;;;1.50;;
4806;SDS011;2417;52.482;13.432;2023-02-01T15:16:59;7.67;;;1.87;;
4806;SDS011;2417;52.482;13.432;2023-02-01T15:19:28;8.60;;;1.90;;
4806;SDS011;2417;52.482;13.432;2023-02-01T15:21:58;6.40;;;1.77;;
4806;SDS011;2417;52.482;13.432;2023-02-01T15:24:27;4.77;;;2.10;;
4806;SDS011;2417;52.482;13.432;2023-02-01T15:26:56;10.10;;;2.00;;
4806;SDS011;2417;52.482;13.432;2023-02-01T15:29:24;5.80;;;2.13;;
4806;SDS011;2417;52.482;13.432;2023-02-01T15:31:54;7.63;;;2.63;;
4806;SDS011;2417;52.482;13.432;2023-02-01T15:34:22;14.07;;;2.30;;
4806;SDS011;2417;52.482;13.432;2023-02-01T15:36:51;8.67;;;2.10;;
4806;SDS011;2417;52.482;13.432;2023-02-01T15:39:30;8.67;;;2.10;;
4806;SDS011;2417;52.482;13.432;2023-02-01T15:42:01;13.33;;;2.00;;